Darstellungsparameter: Aktuell verwendete Einstellungen:
Skalierung der Graphiken ... ?
xyx+y,   Skalierungsfaktor:      Skalierung: Modus: x, Faktor: 1
Darstellungszeitraum ... ?
Vom - - bis: - -   Zeitraum: 06.05.2021 - 06.05.2021
Min/Max/Avg-Anzeige ... ?
Zeige MMA aktuell
Zeige MMA Monat
Zeige MMA alles
Zeige --A aktuell
Zeige --A Monat
Zeige --A alles
Keine MMA-Anzeige
MMA:
Minimum Maximum Average (ber die Originaldaten)
MMA-Basis: 06.05.2021 - 06.05.2021
Quicknavigation für Darstellung... ?
Tage:      1T, 2T, 3T, 5T -1T -2T -3T -5T +1T +2T +3T +5T
Wochen: 1W, 2W, 3W -1W -2W -3W +1W +2W +3W
Monate: 1M, 3M, 6M -1M -3M -6M +1M +3M +6M
Jahre:    1J, 3J, 5J, 10J -1J -3J -5J -10J +1J +3J +5J +10J
Nutze für die Darstellung ... ?
Originaldaten oder Mittelwerte auf ...
Stundenbasis Tagesbasis Wochenbasis
Monatsbasis Jahresbasis      Datenbasis: Original-Daten
Darstellen als:
Statistik (Auto) Statistik J:M      Darstellung:

Der gewünschte Datumsbereich war nicht gültig/verfügbar und wurde korrigiert....
Das angegebene Enddatum (25.07.2022 23:59:59) liegt in der Zukunft.
Das angegebene Startdatum (25.04.2022 00:00:00) liegt in der Zukunft.


Zur Graphik,    zurück zur Übersicht aller Sensoren.
 
Tabellarische Datenbersicht: ?
 
Sensor: Nr:Datum:Temp:Feuchte:Taupunkt:
Aussen-T/F 1 06-05-2021 02:00:00 5.1 C 88 % 3.28 C
2 06-05-2021 02:05:00 5.1 C 88 % 3.28 C
3 06-05-2021 02:10:00 5.1 C 89 % 3.44 C
4 06-05-2021 02:15:00 5.2 C 89 % 3.54 C
5 06-05-2021 02:20:00 5.3 C 89 % 3.64 C
6 06-05-2021 02:25:00 5.3 C 88 % 3.48 C
7 06-05-2021 02:30:00 5.4 C 88 % 3.58 C
8 06-05-2021 02:35:00 5.4 C 88 % 3.58 C
9 06-05-2021 02:40:00 5.4 C 88 % 3.58 C
10 06-05-2021 02:45:00 5.4 C 88 % 3.58 C
11 06-05-2021 02:50:00 5.4 C 88 % 3.58 C
12 06-05-2021 02:55:00 5.4 C 88 % 3.58 C
13 06-05-2021 03:00:00 5.4 C 88 % 3.58 C
14 06-05-2021 03:05:00 5.3 C 87 % 3.32 C
15 06-05-2021 03:10:00 5.3 C 87 % 3.32 C
16 06-05-2021 03:15:00 5.2 C 87 % 3.22 C
17 06-05-2021 03:20:00 5.1 C 88 % 3.28 C
18 06-05-2021 03:25:00 5 C 88 % 3.18 C
19 06-05-2021 03:30:00 4.9 C 88 % 3.08 C
20 06-05-2021 03:35:00 4.9 C 88 % 3.08 C
21 06-05-2021 03:40:00 4.8 C 88 % 2.99 C
22 06-05-2021 03:45:00 4.7 C 88 % 2.89 C
23 06-05-2021 03:50:00 4.6 C 89 % 2.95 C
24 06-05-2021 03:55:00 4.6 C 89 % 2.95 C
25 06-05-2021 04:00:00 4.7 C 90 % 3.2 C
Sensor: Nr:Datum:Temp:Feuchte:Taupunkt:
Aussen-T/F 26 06-05-2021 04:05:00 4.9 C 90 % 3.4 C
27 06-05-2021 04:10:00 5.2 C 89 % 3.54 C
28 06-05-2021 04:15:00 5.4 C 89 % 3.74 C
29 06-05-2021 04:20:00 5.4 C 88 % 3.58 C
30 06-05-2021 04:25:00 5.4 C 88 % 3.58 C
31 06-05-2021 04:30:00 5.3 C 88 % 3.48 C
32 06-05-2021 04:35:00 5.2 C 87 % 3.22 C
33 06-05-2021 04:40:00 5 C 87 % 3.02 C
34 06-05-2021 04:45:00 4.8 C 88 % 2.99 C
35 06-05-2021 04:50:00 4.7 C 88 % 2.89 C
36 06-05-2021 04:55:00 4.7 C 89 % 3.05 C
37 06-05-2021 05:00:00 4.7 C 89 % 3.05 C
38 06-05-2021 05:05:00 4.6 C 90 % 3.1 C
39 06-05-2021 05:10:00 4.6 C 90 % 3.1 C
40 06-05-2021 05:15:00 4.6 C 90 % 3.1 C
41 06-05-2021 05:20:00 4.6 C 90 % 3.1 C
42 06-05-2021 05:25:00 4.6 C 90 % 3.1 C
43 06-05-2021 05:30:00 4.5 C 91 % 3.16 C
44 06-05-2021 05:35:00 4.5 C 91 % 3.16 C
45 06-05-2021 05:40:00 4.5 C 91 % 3.16 C
46 06-05-2021 05:45:00 4.5 C 91 % 3.16 C
47 06-05-2021 05:50:00 4.5 C 91 % 3.16 C
48 06-05-2021 05:55:00 4.4 C 91 % 3.06 C
49 06-05-2021 06:00:00 4.4 C 91 % 3.06 C
50 06-05-2021 06:05:00 4.5 C 92 % 3.32 C
Sensor: Nr:Datum:Temp:Feuchte:Taupunkt:
Aussen-T/F 51 06-05-2021 06:10:00 4.6 C 92 % 3.42 C
52 06-05-2021 06:15:00 4.7 C 91 % 3.36 C
53 06-05-2021 06:20:00 4.8 C 91 % 3.46 C
54 06-05-2021 06:25:00 4.8 C 91 % 3.46 C
55 06-05-2021 06:30:00 4.8 C 91 % 3.46 C
56 06-05-2021 06:35:00 4.9 C 91 % 3.56 C
57 06-05-2021 06:40:00 5 C 91 % 3.66 C
58 06-05-2021 06:45:00 5.1 C 90 % 3.6 C
59 06-05-2021 06:50:00 5.1 C 90 % 3.6 C
60 06-05-2021 06:55:00 5.2 C 90 % 3.7 C
61 06-05-2021 07:00:00 5.2 C 90 % 3.7 C
62 06-05-2021 07:05:00 5.2 C 90 % 3.7 C
63 06-05-2021 07:10:00 5.3 C 90 % 3.8 C
64 06-05-2021 07:15:00 5.4 C 90 % 3.89 C
65 06-05-2021 07:20:00 5.6 C 89 % 3.93 C
66 06-05-2021 07:25:00 5.7 C 89 % 4.03 C
67 06-05-2021 07:30:00 5.8 C 88 % 3.97 C
68 06-05-2021 07:35:00 5.9 C 88 % 4.07 C
69 06-05-2021 07:40:00 6 C 88 % 4.17 C
70 06-05-2021 07:45:00 6.1 C 87 % 4.1 C
71 06-05-2021 07:50:00 6.1 C 87 % 4.1 C
72 06-05-2021 07:55:00 6.2 C 87 % 4.2 C
73 06-05-2021 08:00:00 6.3 C 87 % 4.3 C
74 06-05-2021 08:05:00 6.4 C 87 % 4.4 C
75 06-05-2021 08:10:00 6.4 C 86 % 4.23 C
Sensor: Nr:Datum:Temp:Feuchte:Taupunkt:
Aussen-T/F 76 06-05-2021 08:15:00 6.5 C 86 % 4.33 C
77 06-05-2021 08:20:00 6.7 C 86 % 4.53 C
78 06-05-2021 08:25:00 6.8 C 86 % 4.63 C
79 06-05-2021 08:30:00 6.9 C 86 % 4.72 C
80 06-05-2021 08:35:00 7.1 C 85 % 4.75 C
81 06-05-2021 08:40:00 7.2 C 84 % 4.68 C
82 06-05-2021 08:45:00 7.3 C 85 % 4.95 C
83 06-05-2021 08:50:00 7.4 C 84 % 4.88 C
84 06-05-2021 08:55:00 7.4 C 84 % 4.88 C
85 06-05-2021 09:00:00 7.5 C 84 % 4.98 C
86 06-05-2021 09:05:00 7.6 C 84 % 5.07 C
87 06-05-2021 09:10:00 7.9 C 84 % 5.37 C
88 06-05-2021 09:15:00 8.1 C 82 % 5.22 C
89 06-05-2021 09:20:00 8.2 C 82 % 5.32 C
90 06-05-2021 09:25:00 8.3 C 81 % 5.24 C
91 06-05-2021 09:30:00 8.4 C 81 % 5.33 C
92 06-05-2021 09:35:00 8.5 C 79 % 5.07 C
93 06-05-2021 09:40:00 8.6 C 78 % 4.99 C
94 06-05-2021 09:45:00 8.7 C 77 % 4.9 C
95 06-05-2021 09:50:00 8.8 C 75 % 4.62 C
96 06-05-2021 09:55:00 8.9 C 75 % 4.72 C
97 06-05-2021 10:00:00 9.1 C 75 % 4.91 C
98 06-05-2021 10:05:00 9.1 C 73 % 4.52 C
99 06-05-2021 10:10:00 9.1 C 76 % 5.1 C
100 06-05-2021 10:15:00 9.2 C 73 % 4.62 C
Sensor: Nr:Datum:Temp:Feuchte:Taupunkt:
Aussen-T/F 101 06-05-2021 10:20:00 9.3 C 73 % 4.72 C
102 06-05-2021 10:25:00 9.3 C 72 % 4.52 C
103 06-05-2021 10:30:00 9.3 C 73 % 4.72 C
104 06-05-2021 10:35:00 9.5 C 71 % 4.51 C
105 06-05-2021 10:40:00 9.6 C 71 % 4.61 C
106 06-05-2021 10:45:00 9.9 C 69 % 4.49 C
107 06-05-2021 10:50:00 10.2 C 68 % 4.57 C
108 06-05-2021 10:55:00 10.3 C 65 % 4.02 C
109 06-05-2021 11:00:00 10.3 C 66 % 4.24 C
110 06-05-2021 11:05:00 10.3 C 63 % 3.58 C
111 06-05-2021 11:10:00 10.3 C 66 % 4.24 C
112 06-05-2021 11:15:00 10.6 C 64 % 4.08 C
113 06-05-2021 11:20:00 10.8 C 63 % 4.05 C
114 06-05-2021 11:25:00 10.9 C 60 % 3.45 C
115 06-05-2021 11:30:00 10.9 C 62 % 3.92 C
116 06-05-2021 11:35:00 11 C 61 % 3.78 C
117 06-05-2021 11:40:00 10.9 C 60 % 3.45 C
118 06-05-2021 11:45:00 11 C 59 % 3.31 C
119 06-05-2021 11:50:00 11.2 C 60 % 3.73 C
120 06-05-2021 11:55:00 11.5 C 59 % 3.78 C
121 06-05-2021 12:00:00 11.6 C 59 % 3.87 C
122 06-05-2021 12:05:00 11.4 C 58 % 3.44 C
123 06-05-2021 12:10:00 11.4 C 58 % 3.44 C
124 06-05-2021 12:15:00 11.6 C 58 % 3.63 C
125 06-05-2021 12:20:00 11.5 C 56 % 3.04 C
Sensor: Nr:Datum:Temp:Feuchte:Taupunkt:
Aussen-T/F 126 06-05-2021 12:25:00 11.6 C 58 % 3.63 C
127 06-05-2021 12:30:00 11.8 C 57 % 3.57 C
128 06-05-2021 12:35:00 11.8 C 57 % 3.57 C
129 06-05-2021 12:40:00 11.8 C 59 % 4.06 C
130 06-05-2021 12:45:00 11.7 C 59 % 3.97 C
131 06-05-2021 12:50:00 11.8 C 59 % 4.06 C
132 06-05-2021 12:55:00 11.7 C 57 % 3.48 C
133 06-05-2021 13:00:00 11.8 C 55 % 3.07 C
134 06-05-2021 13:05:00 11.9 C 56 % 3.41 C
135 06-05-2021 13:10:00 12 C 56 % 3.51 C
136 06-05-2021 13:15:00 11.8 C 57 % 3.57 C
137 06-05-2021 13:20:00 11.7 C 56 % 3.23 C
138 06-05-2021 13:25:00 11.7 C 57 % 3.48 C
139 06-05-2021 13:30:00 11.8 C 56 % 3.32 C
140 06-05-2021 13:35:00 11.9 C 59 % 4.15 C
141 06-05-2021 13:40:00 12.1 C 58 % 4.1 C
142 06-05-2021 13:45:00 12.2 C 59 % 4.43 C
143 06-05-2021 13:50:00 12.2 C 57 % 3.94 C
144 06-05-2021 13:55:00 12.3 C 56 % 3.79 C
145 06-05-2021 14:00:00 12.4 C 57 % 4.13 C
146 06-05-2021 14:05:00 12.7 C 56 % 4.16 C
147 06-05-2021 14:10:00 12.8 C 54 % 3.74 C
148 06-05-2021 14:15:00 12.8 C 56 % 4.25 C
149 06-05-2021 14:20:00 12.6 C 55 % 3.81 C
150 06-05-2021 14:25:00 12.3 C 56 % 3.79 C
Sensor: Nr:Datum:Temp:Feuchte:Taupunkt:
Aussen-T/F 151 06-05-2021 14:30:00 12 C 55 % 3.25 C
152 06-05-2021 14:35:00 11.8 C 57 % 3.57 C
153 06-05-2021 14:40:00 11.8 C 58 % 3.82 C
154 06-05-2021 14:45:00 11.8 C 59 % 4.06 C
155 06-05-2021 14:50:00 11.9 C 59 % 4.15 C
156 06-05-2021 14:55:00 11.9 C 58 % 3.91 C
157 06-05-2021 15:00:00 11.9 C 60 % 4.39 C
158 06-05-2021 15:05:00 11.9 C 60 % 4.39 C
159 06-05-2021 15:10:00 11.7 C 61 % 4.44 C
160 06-05-2021 15:15:00 11.4 C 61 % 4.16 C
161 06-05-2021 15:20:00 11.3 C 63 % 4.52 C
162 06-05-2021 15:25:00 11.3 C 64 % 4.75 C
163 06-05-2021 15:30:00 11.3 C 63 % 4.52 C
164 06-05-2021 15:35:00 11.3 C 66 % 5.19 C
165 06-05-2021 15:40:00 11.2 C 67 % 5.31 C
166 06-05-2021 15:45:00 11.1 C 70 % 5.84 C
167 06-05-2021 15:50:00 10.9 C 69 % 5.44 C
168 06-05-2021 15:55:00 10.9 C 73 % 6.26 C
169 06-05-2021 16:00:00 10.9 C 73 % 6.26 C
170 06-05-2021 16:05:00 10.9 C 73 % 6.26 C
171 06-05-2021 16:10:00 10.8 C 73 % 6.16 C
172 06-05-2021 16:15:00 10.7 C 76 % 6.65 C
173 06-05-2021 16:20:00 10.7 C 77 % 6.84 C
174 06-05-2021 16:25:00 10.6 C 74 % 6.17 C
175 06-05-2021 16:30:00 10.6 C 77 % 6.74 C
Sensor: Nr:Datum:Temp:Feuchte:Taupunkt:
Aussen-T/F 176 06-05-2021 16:35:00 10.5 C 78 % 6.83 C
177 06-05-2021 16:40:00 10.3 C 76 % 6.26 C
178 06-05-2021 16:45:00 10.2 C 78 % 6.54 C
179 06-05-2021 16:50:00 10.3 C 81 % 7.19 C
180 06-05-2021 16:55:00 10.3 C 83 % 7.54 C
181 06-05-2021 17:00:00 10.2 C 83 % 7.45 C
182 06-05-2021 17:05:00 10.2 C 83 % 7.45 C
183 06-05-2021 17:10:00 10 C 82 % 7.07 C
184 06-05-2021 17:15:00 9.9 C 84 % 7.33 C
185 06-05-2021 17:20:00 9.9 C 85 % 7.5 C
186 06-05-2021 17:25:00 9.8 C 85 % 7.4 C
187 06-05-2021 17:30:00 9.7 C 86 % 7.47 C
188 06-05-2021 17:35:00 9.6 C 86 % 7.38 C
189 06-05-2021 17:40:00 9.3 C 87 % 7.25 C
190 06-05-2021 17:45:00 9.2 C 87 % 7.15 C
191 06-05-2021 17:50:00 9 C 88 % 7.12 C
192 06-05-2021 17:55:00 8.8 C 88 % 6.93 C
193 06-05-2021 18:00:00 8.7 C 89 % 6.99 C
194 06-05-2021 18:05:00 8.7 C 89 % 6.99 C
195 06-05-2021 18:10:00 8.6 C 90 % 7.06 C
196 06-05-2021 18:15:00 8.6 C 90 % 7.06 C
197 06-05-2021 18:20:00 8.6 C 90 % 7.06 C
198 06-05-2021 18:25:00 8.5 C 90 % 6.96 C
199 06-05-2021 18:30:00 8.4 C 91 % 7.02 C
200 06-05-2021 18:35:00 8.4 C 91 % 7.02 C
Sensor: Nr:Datum:Temp:Feuchte:Taupunkt:
Aussen-T/F 201 06-05-2021 18:40:00 8.4 C 91 % 7.02 C
202 06-05-2021 18:45:00 8.4 C 91 % 7.02 C
203 06-05-2021 18:50:00 8.2 C 90 % 6.66 C
204 06-05-2021 18:55:00 8.1 C 91 % 6.72 C
205 06-05-2021 19:00:00 8.1 C 91 % 6.72 C
206 06-05-2021 19:05:00 8 C 91 % 6.62 C
207 06-05-2021 19:10:00 8 C 92 % 6.78 C
208 06-05-2021 19:15:00 8 C 92 % 6.78 C
209 06-05-2021 19:20:00 7.9 C 92 % 6.68 C
210 06-05-2021 19:25:00 7.9 C 92 % 6.68 C
211 06-05-2021 19:30:00 7.8 C 92 % 6.58 C
212 06-05-2021 19:35:00 7.8 C 92 % 6.58 C
213 06-05-2021 19:40:00 7.8 C 92 % 6.58 C
214 06-05-2021 19:45:00 7.8 C 92 % 6.58 C
215 06-05-2021 19:50:00 7.7 C 92 % 6.48 C
216 06-05-2021 19:55:00 7.6 C 92 % 6.39 C
217 06-05-2021 20:00:00 7.5 C 92 % 6.29 C
218 06-05-2021 20:05:00 7.6 C 92 % 6.39 C
219 06-05-2021 20:10:00 7.6 C 92 % 6.39 C
220 06-05-2021 20:15:00 7.5 C 92 % 6.29 C
221 06-05-2021 20:20:00 7.4 C 92 % 6.19 C
222 06-05-2021 20:25:00 7.4 C 92 % 6.19 C
223 06-05-2021 20:30:00 7.4 C 93 % 6.34 C
224 06-05-2021 20:35:00 7.4 C 92 % 6.19 C
225 06-05-2021 20:40:00 7.4 C 93 % 6.34 C
Sensor: Nr:Datum:Temp:Feuchte:Taupunkt:
Aussen-T/F 226 06-05-2021 20:45:00 7.3 C 93 % 6.25 C
227 06-05-2021 20:50:00 7.3 C 93 % 6.25 C
228 06-05-2021 20:55:00 7.3 C 93 % 6.25 C
229 06-05-2021 21:00:00 7.2 C 93 % 6.15 C
230 06-05-2021 21:05:00 7.2 C 93 % 6.15 C
231 06-05-2021 21:10:00 7.2 C 93 % 6.15 C
232 06-05-2021 21:15:00 7.1 C 93 % 6.05 C
233 06-05-2021 21:20:00 7.1 C 93 % 6.05 C
234 06-05-2021 21:25:00 7.1 C 93 % 6.05 C
235 06-05-2021 21:30:00 7.1 C 93 % 6.05 C
236 06-05-2021 21:35:00 7 C 93 % 5.95 C
237 06-05-2021 21:40:00 7 C 93 % 5.95 C
238 06-05-2021 21:45:00 6.9 C 94 % 6 C
239 06-05-2021 21:50:00 6.9 C 93 % 5.85 C
240 06-05-2021 21:55:00 6.9 C 93 % 5.85 C
241 06-05-2021 22:00:00 6.9 C 94 % 6 C
242 06-05-2021 22:05:00 6.8 C 94 % 5.9 C
243 06-05-2021 22:10:00 6.8 C 94 % 5.9 C
244 06-05-2021 22:15:00 6.8 C 94 % 5.9 C
245 06-05-2021 22:20:00 6.8 C 94 % 5.9 C
246 06-05-2021 22:25:00 6.8 C 94 % 5.9 C
247 06-05-2021 22:30:00 6.8 C 94 % 5.9 C
248 06-05-2021 22:35:00 6.8 C 94 % 5.9 C
249 06-05-2021 22:40:00 6.8 C 94 % 5.9 C
250 06-05-2021 22:45:00 6.7 C 94 % 5.8 C
Sensor: Nr:Datum:Temp:Feuchte:Taupunkt:
Aussen-T/F 251 06-05-2021 22:50:00 6.7 C 94 % 5.8 C
252 06-05-2021 22:55:00 6.7 C 94 % 5.8 C
253 06-05-2021 23:00:00 6.7 C 94 % 5.8 C
254 06-05-2021 23:05:00 6.7 C 94 % 5.8 C
255 06-05-2021 23:10:00 6.7 C 94 % 5.8 C
256 06-05-2021 23:15:00 6.7 C 94 % 5.8 C
257 06-05-2021 23:20:00 6.7 C 94 % 5.8 C
258 06-05-2021 23:25:00 6.7 C 94 % 5.8 C
259 06-05-2021 23:30:00 6.6 C 95 % 5.86 C
260 06-05-2021 23:35:00 6.6 C 95 % 5.86 C
261 06-05-2021 23:40:00 6.6 C 95 % 5.86 C
262 06-05-2021 23:45:00 6.6 C 95 % 5.86 C
263 06-05-2021 23:50:00 6.6 C 94 % 5.71 C
264 06-05-2021 23:55:00 6.6 C 95 % 5.86 C

Legende:
   Min
   Max


Maximal/Minimal-Werte vom 06.05.2021 - 06.05.2021

Sensor Min Max Avg
Temp
(Aussen-T/F)
4.4 °C
06-05-2021  05:55:00
12.8 °C
06-05-2021  14:10:00
8.07 °C
Feuchte
(Aussen-T/F)
54 %
06-05-2021  14:10:00
95 %
06-05-2021  23:30:00
81.26 %
Taupunkt
(Aussen-T/F)
2.89 C
06-05-2021  03:45:00
7.54 C
06-05-2021  16:55:00
4.81 C

Die Daten stammen von einer Davis Vantage Pro 2 Wetter-Station und werden unter Linux mit der Software wview2wettercgi und aufbereitet. Alle Angaben erfolgen ohne Gewähr für ihre Vollständigkeit oder Richtigkeit.
Kontakt: Rainer Krienke krienke@uni-koblenz.de . Meine Webseiten an der Uni Koblenz oder privat.
Version: $Revision: 0.78 $